sensor_id;sensor_type;location;lat;lon;timestamp;P1;durP1;ratioP1;P2;durP2;ratioP2
67930;SDS011;63902;52.000;5.954;2023-01-16T00:00:22;3.88;;;1.00;;
67930;SDS011;63902;52.000;5.954;2023-01-16T00:01:23;4.78;;;1.25;;
67930;SDS011;63902;52.000;5.954;2023-01-16T00:02:27;4.40;;;1.60;;
67930;SDS011;63902;52.000;5.954;2023-01-16T00:03:28;6.75;;;1.27;;
67930;SDS011;63902;52.000;5.954;2023-01-16T00:04:28;7.72;;;1.20;;
67930;SDS011;63902;52.000;5.954;2023-01-16T00:05:29;2.35;;;0.95;;
67930;SDS011;63902;52.000;5.954;2023-01-16T00:06:29;6.85;;;1.35;;
67930;SDS011;63902;52.000;5.954;2023-01-16T00:07:29;2.75;;;1.60;;
67930;SDS011;63902;52.000;5.954;2023-01-16T00:08:30;3.28;;;1.50;;
67930;SDS011;63902;52.000;5.954;2023-01-16T00:09:30;4.15;;;1.10;;
67930;SDS011;63902;52.000;5.954;2023-01-16T00:10:31;2.58;;;1.05;;
67930;SDS011;63902;52.000;5.954;2023-01-16T00:11:31;4.78;;;1.48;;
67930;SDS011;63902;52.000;5.954;2023-01-16T00:12:32;4.95;;;1.45;;
67930;SDS011;63902;52.000;5.954;2023-01-16T00:13:32;5.18;;;1.30;;
67930;SDS011;63902;52.000;5.954;2023-01-16T00:14:33;10.15;;;1.20;;
67930;SDS011;63902;52.000;5.954;2023-01-16T00:15:33;4.50;;;1.40;;
67930;SDS011;63902;52.000;5.954;2023-01-16T00:16:34;2.47;;;1.05;;
67930;SDS011;63902;52.000;5.954;2023-01-16T00:17:35;2.53;;;0.90;;
67930;SDS011;63902;52.000;5.954;2023-01-16T00:18:36;1.83;;;0.82;;
67930;SDS011;63902;52.000;5.954;2023-01-16T00:19:36;6.50;;;1.42;;
67930;SDS011;63902;52.000;5.954;2023-01-16T00:20:37;3.95;;;1.15;;
67930;SDS011;63902;52.000;5.954;2023-01-16T00:21:37;3.00;;;1.23;;
67930;SDS011;63902;52.000;5.954;2023-01-16T00:22:38;3.15;;;1.17;;
67930;SDS011;63902;52.000;5.954;2023-01-16T00:23:38;2.42;;;1.20;;
67930;SDS011;63902;52.000;5.954;2023-01-16T00:24:39;4.35;;;1.30;;
67930;SDS011;63902;52.000;5.954;2023-01-16T00:25:39;2.65;;;1.05;;
67930;SDS011;63902;52.000;5.954;2023-01-16T00:26:40;3.33;;;1.20;;
67930;SDS011;63902;52.000;5.954;2023-01-16T00:27:40;2.90;;;1.45;;
67930;SDS011;63902;52.000;5.954;2023-01-16T00:28:41;2.53;;;1.00;;
67930;SDS011;63902;52.000;5.954;2023-01-16T00:29:41;3.08;;;1.52;;
67930;SDS011;63902;52.000;5.954;2023-01-16T00:30:41;4.47;;;1.38;;
67930;SDS011;63902;52.000;5.954;2023-01-16T00:31:43;4.18;;;1.70;;
67930;SDS011;63902;52.000;5.954;2023-01-16T00:32:45;4.43;;;1.35;;
67930;SDS011;63902;52.000;5.954;2023-01-16T00:33:45;4.10;;;1.40;;
67930;SDS011;63902;52.000;5.954;2023-01-16T00:34:46;4.32;;;1.58;;
67930;SDS011;63902;52.000;5.954;2023-01-16T00:35:46;3.85;;;1.20;;
67930;SDS011;63902;52.000;5.954;2023-01-16T00:36:47;3.20;;;1.55;;
67930;SDS011;63902;52.000;5.954;2023-01-16T00:37:47;2.38;;;1.50;;
67930;SDS011;63902;52.000;5.954;2023-01-16T00:38:48;2.53;;;1.40;;
67930;SDS011;63902;52.000;5.954;2023-01-16T00:39:48;3.45;;;1.20;;
67930;SDS011;63902;52.000;5.954;2023-01-16T00:40:49;4.65;;;1.50;;
67930;SDS011;63902;52.000;5.954;2023-01-16T00:41:49;2.65;;;1.83;;
67930;SDS011;63902;52.000;5.954;2023-01-16T00:42:50;2.70;;;1.50;;
67930;SDS011;63902;52.000;5.954;2023-01-16T00:43:50;2.65;;;1.63;;
67930;SDS011;63902;52.000;5.954;2023-01-16T00:44:51;7.13;;;2.17;;
67930;SDS011;63902;52.000;5.954;2023-01-16T00:45:51;3.55;;;1.90;;
67930;SDS011;63902;52.000;5.954;2023-01-16T00:46:52;6.20;;;1.95;;
67930;SDS011;63902;52.000;5.954;2023-01-16T00:47:54;3.00;;;1.80;;
67930;SDS011;63902;52.000;5.954;2023-01-16T00:48:54;2.80;;;2.10;;
67930;SDS011;63902;52.000;5.954;2023-01-16T00:49:55;3.25;;;2.20;;
67930;SDS011;63902;52.000;5.954;2023-01-16T00:50:55;6.38;;;2.40;;
67930;SDS011;63902;52.000;5.954;2023-01-16T00:51:56;3.53;;;1.70;;
67930;SDS011;63902;52.000;5.954;2023-01-16T00:52:56;3.58;;;2.20;;
67930;SDS011;63902;52.000;5.954;2023-01-16T00:53:57;5.70;;;3.03;;
67930;SDS011;63902;52.000;5.954;2023-01-16T00:54:57;4.25;;;2.50;;
67930;SDS011;63902;52.000;5.954;2023-01-16T00:55:58;3.28;;;2.53;;
67930;SDS011;63902;52.000;5.954;2023-01-16T00:56:58;3.50;;;2.47;;
67930;SDS011;63902;52.000;5.954;2023-01-16T00:57:59;2.92;;;2.17;;
67930;SDS011;63902;52.000;5.954;2023-01-16T00:58:59;4.25;;;2.60;;
67930;SDS011;63902;52.000;5.954;2023-01-16T01:00:00;5.97;;;2.58;;
67930;SDS011;63902;52.000;5.954;2023-01-16T01:01:00;4.93;;;3.10;;
67930;SDS011;63902;52.000;5.954;2023-01-16T01:02:01;3.67;;;2.75;;
67930;SDS011;63902;52.000;5.954;2023-01-16T01:03:03;5.78;;;3.22;;
67930;SDS011;63902;52.000;5.954;2023-01-16T01:04:04;4.07;;;2.92;;
67930;SDS011;63902;52.000;5.954;2023-01-16T01:05:05;3.63;;;3.03;;
67930;SDS011;63902;52.000;5.954;2023-01-16T01:06:06;4.05;;;3.20;;
67930;SDS011;63902;52.000;5.954;2023-01-16T01:07:07;5.95;;;3.50;;
67930;SDS011;63902;52.000;5.954;2023-01-16T01:08:08;6.22;;;2.83;;
67930;SDS011;63902;52.000;5.954;2023-01-16T01:09:08;4.00;;;3.30;;
67930;SDS011;63902;52.000;5.954;2023-01-16T01:10:09;3.53;;;3.15;;
67930;SDS011;63902;52.000;5.954;2023-01-16T01:11:11;6.38;;;3.33;;
67930;SDS011;63902;52.000;5.954;2023-01-16T01:12:13;8.40;;;3.85;;
67930;SDS011;63902;52.000;5.954;2023-01-16T01:13:13;5.13;;;3.17;;
67930;SDS011;63902;52.000;5.954;2023-01-16T01:14:13;4.40;;;3.50;;
67930;SDS011;63902;52.000;5.954;2023-01-16T01:15:14;5.68;;;3.70;;
67930;SDS011;63902;52.000;5.954;2023-01-16T01:16:14;4.80;;;3.63;;
67930;SDS011;63902;52.000;5.954;2023-01-16T01:17:15;5.68;;;3.90;;
67930;SDS011;63902;52.000;5.954;2023-01-16T01:18:17;3.83;;;3.33;;
67930;SDS011;63902;52.000;5.954;2023-01-16T01:19:18;4.82;;;3.85;;
67930;SDS011;63902;52.000;5.954;2023-01-16T01:20:18;4.78;;;3.58;;
67930;SDS011;63902;52.000;5.954;2023-01-16T01:21:19;3.83;;;3.15;;
67930;SDS011;63902;52.000;5.954;2023-01-16T01:22:19;7.35;;;4.47;;
67930;SDS011;63902;52.000;5.954;2023-01-16T01:23:20;6.20;;;4.07;;
67930;SDS011;63902;52.000;5.954;2023-01-16T01:24:20;5.45;;;3.97;;
67930;SDS011;63902;52.000;5.954;2023-01-16T01:25:21;4.10;;;3.60;;
67930;SDS011;63902;52.000;5.954;2023-01-16T01:26:22;6.32;;;3.50;;
67930;SDS011;63902;52.000;5.954;2023-01-16T01:27:22;6.78;;;3.65;;
67930;SDS011;63902;52.000;5.954;2023-01-16T01:28:23;4.18;;;3.67;;
67930;SDS011;63902;52.000;5.954;2023-01-16T01:29:23;4.75;;;3.72;;
67930;SDS011;63902;52.000;5.954;2023-01-16T01:30:24;5.07;;;4.30;;
67930;SDS011;63902;52.000;5.954;2023-01-16T01:31:24;4.32;;;3.30;;
67930;SDS011;63902;52.000;5.954;2023-01-16T01:32:24;4.93;;;3.08;;
67930;SDS011;63902;52.000;5.954;2023-01-16T01:33:26;4.18;;;3.38;;
67930;SDS011;63902;52.000;5.954;2023-01-16T01:34:27;4.03;;;3.10;;
67930;SDS011;63902;52.000;5.954;2023-01-16T01:35:27;4.05;;;3.58;;
67930;SDS011;63902;52.000;5.954;2023-01-16T01:36:28;5.70;;;3.35;;
67930;SDS011;63902;52.000;5.954;2023-01-16T01:37:28;8.30;;;3.78;;
67930;SDS011;63902;52.000;5.954;2023-01-16T01:38:29;4.20;;;3.10;;
67930;SDS011;63902;52.000;5.954;2023-01-16T01:39:30;3.85;;;2.92;;
67930;SDS011;63902;52.000;5.954;2023-01-16T01:40:31;3.60;;;2.53;;
67930;SDS011;63902;52.000;5.954;2023-01-16T01:41:32;8.65;;;3.25;;
67930;SDS011;63902;52.000;5.954;2023-01-16T01:42:36;3.67;;;2.88;;
67930;SDS011;63902;52.000;5.954;2023-01-16T01:43:41;5.65;;;2.92;;
67930;SDS011;63902;52.000;5.954;2023-01-16T01:44:51;5.60;;;3.08;;
67930;SDS011;63902;52.000;5.954;2023-01-16T01:45:53;4.00;;;2.70;;
67930;SDS011;63902;52.000;5.954;2023-01-16T01:46:55;4.03;;;2.75;;
67930;SDS011;63902;52.000;5.954;2023-01-16T01:47:57;3.83;;;2.60;;
67930;SDS011;63902;52.000;5.954;2023-01-16T01:49:04;5.43;;;2.85;;
67930;SDS011;63902;52.000;5.954;2023-01-16T01:50:12;3.30;;;2.38;;
67930;SDS011;63902;52.000;5.954;2023-01-16T01:51:16;3.92;;;2.78;;
67930;SDS011;63902;52.000;5.954;2023-01-16T01:52:19;5.88;;;3.03;;
67930;SDS011;63902;52.000;5.954;2023-01-16T01:53:22;3.92;;;2.65;;
67930;SDS011;63902;52.000;5.954;2023-01-16T01:54:28;3.63;;;2.47;;
67930;SDS011;63902;52.000;5.954;2023-01-16T01:55:32;3.17;;;2.83;;
67930;SDS011;63902;52.000;5.954;2023-01-16T01:56:33;5.32;;;2.30;;
67930;SDS011;63902;52.000;5.954;2023-01-16T01:57:37;4.15;;;3.05;;
67930;SDS011;63902;52.000;5.954;2023-01-16T01:58:40;6.10;;;3.03;;
67930;SDS011;63902;52.000;5.954;2023-01-16T01:59:43;6.35;;;2.53;;
67930;SDS011;63902;52.000;5.954;2023-01-16T02:00:48;7.15;;;2.75;;
67930;SDS011;63902;52.000;5.954;2023-01-16T02:01:52;5.88;;;2.50;;
67930;SDS011;63902;52.000;5.954;2023-01-16T02:02:55;2.38;;;2.03;;
67930;SDS011;63902;52.000;5.954;2023-01-16T02:04:04;3.65;;;2.53;;
67930;SDS011;63902;52.000;5.954;2023-01-16T02:05:08;4.45;;;2.80;;
67930;SDS011;63902;52.000;5.954;2023-01-16T02:06:12;4.78;;;2.63;;
67930;SDS011;63902;52.000;5.954;2023-01-16T02:07:16;5.40;;;2.38;;
67930;SDS011;63902;52.000;5.954;2023-01-16T02:08:19;5.70;;;2.75;;
67930;SDS011;63902;52.000;5.954;2023-01-16T02:09:22;3.42;;;2.35;;
67930;SDS011;63902;52.000;5.954;2023-01-16T02:10:27;5.95;;;2.58;;
67930;SDS011;63902;52.000;5.954;2023-01-16T02:11:33;4.10;;;2.47;;
67930;SDS011;63902;52.000;5.954;2023-01-16T02:12:40;7.68;;;2.72;;
67930;SDS011;63902;52.000;5.954;2023-01-16T02:13:41;5.57;;;2.38;;
67930;SDS011;63902;52.000;5.954;2023-01-16T02:14:42;5.47;;;1.70;;
67930;SDS011;63902;52.000;5.954;2023-01-16T02:15:45;6.53;;;2.10;;
67930;SDS011;63902;52.000;5.954;2023-01-16T02:16:47;5.40;;;2.25;;
67930;SDS011;63902;52.000;5.954;2023-01-16T02:17:51;8.18;;;2.45;;
67930;SDS011;63902;52.000;5.954;2023-01-16T02:18:51;2.85;;;1.55;;
67930;SDS011;63902;52.000;5.954;2023-01-16T02:19:54;5.30;;;1.73;;
67930;SDS011;63902;52.000;5.954;2023-01-16T02:21:09;7.75;;;1.58;;
67930;SDS011;63902;52.000;5.954;2023-01-16T02:22:39;5.82;;;1.80;;
67930;SDS011;63902;52.000;5.954;2023-01-16T02:24:00;4.25;;;1.65;;
67930;SDS011;63902;52.000;5.954;2023-01-16T02:27:05;3.35;;;1.30;;
67930;SDS011;63902;52.000;5.954;2023-01-16T02:28:26;3.67;;;1.63;;
67930;SDS011;63902;52.000;5.954;2023-01-16T02:30:05;2.35;;;0.98;;
67930;SDS011;63902;52.000;5.954;2023-01-16T02:31:18;7.65;;;1.70;;
67930;SDS011;63902;52.000;5.954;2023-01-16T02:32:44;2.00;;;1.38;;
67930;SDS011;63902;52.000;5.954;2023-01-16T02:33:59;4.05;;;1.23;;
67930;SDS011;63902;52.000;5.954;2023-01-16T02:35:16;4.90;;;1.63;;
67930;SDS011;63902;52.000;5.954;2023-01-16T02:36:30;5.57;;;1.60;;
67930;SDS011;63902;52.000;5.954;2023-01-16T02:37:43;6.47;;;2.17;;
67930;SDS011;63902;52.000;5.954;2023-01-16T02:38:50;6.55;;;1.95;;
67930;SDS011;63902;52.000;5.954;2023-01-16T02:39:59;3.28;;;1.48;;
67930;SDS011;63902;52.000;5.954;2023-01-16T02:41:10;6.85;;;1.48;;
67930;SDS011;63902;52.000;5.954;2023-01-16T02:42:20;4.25;;;1.60;;
67930;SDS011;63902;52.000;5.954;2023-01-16T02:43:29;8.70;;;1.95;;
67930;SDS011;63902;52.000;5.954;2023-01-16T02:44:35;12.77;;;1.65;;
67930;SDS011;63902;52.000;5.954;2023-01-16T02:45:46;11.27;;;2.00;;
67930;SDS011;63902;52.000;5.954;2023-01-16T02:46:55;7.10;;;1.55;;
67930;SDS011;63902;52.000;5.954;2023-01-16T02:48:03;5.38;;;1.50;;
67930;SDS011;63902;52.000;5.954;2023-01-16T02:49:09;4.95;;;1.08;;
67930;SDS011;63902;52.000;5.954;2023-01-16T02:50:18;7.00;;;1.40;;
67930;SDS011;63902;52.000;5.954;2023-01-16T02:51:23;5.38;;;1.60;;
67930;SDS011;63902;52.000;5.954;2023-01-16T02:52:35;5.60;;;1.33;;
67930;SDS011;63902;52.000;5.954;2023-01-16T02:53:42;5.28;;;1.42;;
67930;SDS011;63902;52.000;5.954;2023-01-16T02:54:45;3.60;;;1.40;;
67930;SDS011;63902;52.000;5.954;2023-01-16T02:55:53;9.27;;;1.73;;
67930;SDS011;63902;52.000;5.954;2023-01-16T02:56:56;5.53;;;1.60;;
67930;SDS011;63902;52.000;5.954;2023-01-16T02:58:03;6.53;;;1.48;;
67930;SDS011;63902;52.000;5.954;2023-01-16T02:59:06;4.07;;;1.55;;
67930;SDS011;63902;52.000;5.954;2023-01-16T03:00:08;5.57;;;1.42;;
67930;SDS011;63902;52.000;5.954;2023-01-16T03:01:09;2.20;;;0.95;;
67930;SDS011;63902;52.000;5.954;2023-01-16T03:02:11;4.60;;;1.27;;
67930;SDS011;63902;52.000;5.954;2023-01-16T03:03:17;4.30;;;1.50;;
67930;SDS011;63902;52.000;5.954;2023-01-16T03:04:37;7.32;;;1.38;;
67930;SDS011;63902;52.000;5.954;2023-01-16T03:05:41;3.90;;;1.40;;
67930;SDS011;63902;52.000;5.954;2023-01-16T03:06:49;4.72;;;1.38;;
67930;SDS011;63902;52.000;5.954;2023-01-16T03:07:59;6.85;;;1.55;;
67930;SDS011;63902;52.000;5.954;2023-01-16T03:09:22;9.45;;;1.70;;
67930;SDS011;63902;52.000;5.954;2023-01-16T03:10:50;9.43;;;2.10;;
67930;SDS011;63902;52.000;5.954;2023-01-16T03:12:21;5.07;;;1.55;;
67930;SDS011;63902;52.000;5.954;2023-01-16T03:13:34;5.85;;;1.20;;
67930;SDS011;63902;52.000;5.954;2023-01-16T03:14:46;3.75;;;1.33;;
67930;SDS011;63902;52.000;5.954;2023-01-16T03:15:52;1.98;;;1.27;;
67930;SDS011;63902;52.000;5.954;2023-01-16T03:17:04;7.93;;;1.60;;
67930;SDS011;63902;52.000;5.954;2023-01-16T03:18:17;4.20;;;1.20;;
67930;SDS011;63902;52.000;5.954;2023-01-16T03:19:27;7.13;;;1.63;;
67930;SDS011;63902;52.000;5.954;2023-01-16T03:20:39;3.78;;;1.30;;
67930;SDS011;63902;52.000;5.954;2023-01-16T03:21:58;6.57;;;1.85;;
67930;SDS011;63902;52.000;5.954;2023-01-16T03:23:09;4.05;;;1.27;;
67930;SDS011;63902;52.000;5.954;2023-01-16T03:24:18;3.58;;;1.02;;
67930;SDS011;63902;52.000;5.954;2023-01-16T03:25:28;3.33;;;1.50;;
67930;SDS011;63902;52.000;5.954;2023-01-16T03:26:36;14.25;;;1.70;;
67930;SDS011;63902;52.000;5.954;2023-01-16T03:27:44;3.60;;;1.20;;
67930;SDS011;63902;52.000;5.954;2023-01-16T03:28:53;2.35;;;1.23;;
67930;SDS011;63902;52.000;5.954;2023-01-16T03:30:03;10.05;;;2.30;;
67930;SDS011;63902;52.000;5.954;2023-01-16T03:31:10;6.25;;;1.40;;
67930;SDS011;63902;52.000;5.954;2023-01-16T03:32:16;4.63;;;1.52;;
67930;SDS011;63902;52.000;5.954;2023-01-16T03:33:29;5.38;;;1.52;;
67930;SDS011;63902;52.000;5.954;2023-01-16T03:34:34;6.22;;;1.38;;
67930;SDS011;63902;52.000;5.954;2023-01-16T03:35:42;2.42;;;1.42;;
67930;SDS011;63902;52.000;5.954;2023-01-16T03:36:49;5.85;;;1.23;;
67930;SDS011;63902;52.000;5.954;2023-01-16T03:37:54;4.18;;;1.30;;
67930;SDS011;63902;52.000;5.954;2023-01-16T03:38:57;6.25;;;1.75;;
67930;SDS011;63902;52.000;5.954;2023-01-16T03:40:01;3.17;;;1.25;;
67930;SDS011;63902;52.000;5.954;2023-01-16T03:41:05;2.20;;;1.30;;
67930;SDS011;63902;52.000;5.954;2023-01-16T03:42:10;2.60;;;1.35;;
67930;SDS011;63902;52.000;5.954;2023-01-16T03:43:14;7.75;;;1.58;;
67930;SDS011;63902;52.000;5.954;2023-01-16T03:44:20;2.55;;;1.27;;
67930;SDS011;63902;52.000;5.954;2023-01-16T03:45:25;5.43;;;1.35;;
67930;SDS011;63902;52.000;5.954;2023-01-16T03:46:31;2.53;;;1.20;;
67930;SDS011;63902;52.000;5.954;2023-01-16T03:47:38;2.35;;;1.17;;
67930;SDS011;63902;52.000;5.954;2023-01-16T03:48:44;7.55;;;1.40;;
67930;SDS011;63902;52.000;5.954;2023-01-16T03:49:49;3.20;;;1.23;;
67930;SDS011;63902;52.000;5.954;2023-01-16T03:50:55;4.25;;;1.25;;
67930;SDS011;63902;52.000;5.954;2023-01-16T03:51:59;2.28;;;1.27;;
67930;SDS011;63902;52.000;5.954;2023-01-16T03:53:05;3.50;;;1.75;;
67930;SDS011;63902;52.000;5.954;2023-01-16T03:54:10;4.90;;;1.40;;
67930;SDS011;63902;52.000;5.954;2023-01-16T03:55:16;6.78;;;1.35;;
67930;SDS011;63902;52.000;5.954;2023-01-16T03:56:23;4.28;;;1.33;;
67930;SDS011;63902;52.000;5.954;2023-01-16T03:57:30;2.55;;;1.25;;
67930;SDS011;63902;52.000;5.954;2023-01-16T03:58:35;5.45;;;1.58;;
67930;SDS011;63902;52.000;5.954;2023-01-16T03:59:38;6.70;;;1.45;;
67930;SDS011;63902;52.000;5.954;2023-01-16T04:00:44;6.07;;;1.45;;
67930;SDS011;63902;52.000;5.954;2023-01-16T04:01:49;3.10;;;1.20;;
67930;SDS011;63902;52.000;5.954;2023-01-16T04:02:56;3.22;;;1.20;;
67930;SDS011;63902;52.000;5.954;2023-01-16T04:04:05;7.30;;;1.65;;
67930;SDS011;63902;52.000;5.954;2023-01-16T04:05:09;5.15;;;1.20;;
67930;SDS011;63902;52.000;5.954;2023-01-16T04:06:16;2.15;;;1.38;;
67930;SDS011;63902;52.000;5.954;2023-01-16T04:07:21;2.83;;;1.25;;
67930;SDS011;63902;52.000;5.954;2023-01-16T04:08:30;5.18;;;1.02;;
67930;SDS011;63902;52.000;5.954;2023-01-16T04:09:36;3.72;;;1.73;;
67930;SDS011;63902;52.000;5.954;2023-01-16T04:10:42;6.50;;;1.85;;
67930;SDS011;63902;52.000;5.954;2023-01-16T04:11:46;5.15;;;1.73;;
67930;SDS011;63902;52.000;5.954;2023-01-16T04:12:50;2.08;;;1.20;;
67930;SDS011;63902;52.000;5.954;2023-01-16T04:13:54;4.63;;;1.38;;
67930;SDS011;63902;52.000;5.954;2023-01-16T04:14:59;3.42;;;1.17;;
67930;SDS011;63902;52.000;5.954;2023-01-16T04:16:02;3.85;;;1.50;;
67930;SDS011;63902;52.000;5.954;2023-01-16T04:17:06;6.32;;;1.17;;
67930;SDS011;63902;52.000;5.954;2023-01-16T04:18:07;3.33;;;1.35;;
67930;SDS011;63902;52.000;5.954;2023-01-16T04:19:11;7.28;;;1.67;;
67930;SDS011;63902;52.000;5.954;2023-01-16T04:20:13;4.78;;;2.28;;
67930;SDS011;63902;52.000;5.954;2023-01-16T04:21:14;7.90;;;1.98;;
67930;SDS011;63902;52.000;5.954;2023-01-16T04:22:18;7.38;;;1.67;;
67930;SDS011;63902;52.000;5.954;2023-01-16T04:23:21;3.00;;;1.58;;
67930;SDS011;63902;52.000;5.954;2023-01-16T04:24:21;3.83;;;1.20;;
67930;SDS011;63902;52.000;5.954;2023-01-16T04:25:22;7.75;;;1.77;;
67930;SDS011;63902;52.000;5.954;2023-01-16T04:26:23;4.00;;;1.15;;
67930;SDS011;63902;52.000;5.954;2023-01-16T04:27:23;6.85;;;1.75;;
67930;SDS011;63902;52.000;5.954;2023-01-16T04:28:24;5.95;;;1.25;;
67930;SDS011;63902;52.000;5.954;2023-01-16T04:29:25;3.45;;;1.30;;
67930;SDS011;63902;52.000;5.954;2023-01-16T04:30:25;5.18;;;1.73;;
67930;SDS011;63902;52.000;5.954;2023-01-16T04:31:25;4.68;;;1.65;;
67930;SDS011;63902;52.000;5.954;2023-01-16T04:32:26;6.32;;;1.20;;
67930;SDS011;63902;52.000;5.954;2023-01-16T04:33:26;2.40;;;1.05;;
67930;SDS011;63902;52.000;5.954;2023-01-16T04:34:28;1.85;;;1.10;;
67930;SDS011;63902;52.000;5.954;2023-01-16T04:35:29;7.97;;;1.33;;
67930;SDS011;63902;52.000;5.954;2023-01-16T04:36:29;4.43;;;1.50;;
67930;SDS011;63902;52.000;5.954;2023-01-16T04:37:30;3.63;;;1.23;;
67930;SDS011;63902;52.000;5.954;2023-01-16T04:38:31;5.78;;;1.60;;
67930;SDS011;63902;52.000;5.954;2023-01-16T04:39:31;6.95;;;1.48;;
67930;SDS011;63902;52.000;5.954;2023-01-16T04:40:32;4.70;;;1.30;;
67930;SDS011;63902;52.000;5.954;2023-01-16T04:41:32;10.45;;;1.95;;
67930;SDS011;63902;52.000;5.954;2023-01-16T04:42:33;5.10;;;1.10;;
67930;SDS011;63902;52.000;5.954;2023-01-16T04:43:33;3.20;;;1.17;;
67930;SDS011;63902;52.000;5.954;2023-01-16T04:44:34;2.00;;;1.20;;
67930;SDS011;63902;52.000;5.954;2023-01-16T04:45:34;2.75;;;1.23;;
67930;SDS011;63902;52.000;5.954;2023-01-16T04:46:35;7.03;;;1.50;;
67930;SDS011;63902;52.000;5.954;2023-01-16T04:47:36;2.50;;;1.20;;
67930;SDS011;63902;52.000;5.954;2023-01-16T04:48:36;7.38;;;1.42;;
67930;SDS011;63902;52.000;5.954;2023-01-16T04:49:38;3.40;;;1.08;;
67930;SDS011;63902;52.000;5.954;2023-01-16T04:50:38;10.70;;;1.40;;
67930;SDS011;63902;52.000;5.954;2023-01-16T04:51:39;2.47;;;1.15;;
67930;SDS011;63902;52.000;5.954;2023-01-16T04:52:40;9.23;;;1.45;;
67930;SDS011;63902;52.000;5.954;2023-01-16T04:53:40;6.05;;;1.48;;
67930;SDS011;63902;52.000;5.954;2023-01-16T04:54:41;2.20;;;1.40;;
67930;SDS011;63902;52.000;5.954;2023-01-16T04:55:41;6.60;;;1.40;;
67930;SDS011;63902;52.000;5.954;2023-01-16T04:56:42;6.45;;;1.70;;
67930;SDS011;63902;52.000;5.954;2023-01-16T04:57:42;4.72;;;1.55;;
67930;SDS011;63902;52.000;5.954;2023-01-16T04:58:43;7.20;;;1.98;;
67930;SDS011;63902;52.000;5.954;2023-01-16T04:59:43;6.82;;;2.20;;
67930;SDS011;63902;52.000;5.954;2023-01-16T05:00:44;6.15;;;2.30;;
67930;SDS011;63902;52.000;5.954;2023-01-16T05:01:44;6.57;;;1.73;;
67930;SDS011;63902;52.000;5.954;2023-01-16T05:02:45;7.70;;;1.73;;
67930;SDS011;63902;52.000;5.954;2023-01-16T05:03:45;5.35;;;1.58;;
67930;SDS011;63902;52.000;5.954;2023-01-16T05:04:47;6.22;;;1.90;;
67930;SDS011;63902;52.000;5.954;2023-01-16T05:05:48;4.70;;;1.48;;
67930;SDS011;63902;52.000;5.954;2023-01-16T05:06:48;7.68;;;1.85;;
67930;SDS011;63902;52.000;5.954;2023-01-16T05:07:49;5.75;;;2.05;;
67930;SDS011;63902;52.000;5.954;2023-01-16T05:08:49;7.63;;;2.33;;
67930;SDS011;63902;52.000;5.954;2023-01-16T05:09:50;5.13;;;2.50;;
67930;SDS011;63902;52.000;5.954;2023-01-16T05:10:50;5.85;;;2.47;;
67930;SDS011;63902;52.000;5.954;2023-01-16T05:11:51;6.78;;;2.05;;
67930;SDS011;63902;52.000;5.954;2023-01-16T05:12:51;2.90;;;1.92;;
67930;SDS011;63902;52.000;5.954;2023-01-16T05:13:52;12.32;;;1.90;;
67930;SDS011;63902;52.000;5.954;2023-01-16T05:14:52;7.15;;;2.08;;
67930;SDS011;63902;52.000;5.954;2023-01-16T05:15:53;2.55;;;1.70;;
67930;SDS011;63902;52.000;5.954;2023-01-16T05:16:53;5.60;;;2.13;;
67930;SDS011;63902;52.000;5.954;2023-01-16T05:17:53;5.13;;;1.88;;
67930;SDS011;63902;52.000;5.954;2023-01-16T05:18:54;4.70;;;1.80;;
67930;SDS011;63902;52.000;5.954;2023-01-16T05:19:56;6.10;;;1.55;;
67930;SDS011;63902;52.000;5.954;2023-01-16T05:20:56;4.18;;;1.70;;
67930;SDS011;63902;52.000;5.954;2023-01-16T05:21:57;3.97;;;1.73;;
67930;SDS011;63902;52.000;5.954;2023-01-16T05:22:57;3.42;;;1.63;;
67930;SDS011;63902;52.000;5.954;2023-01-16T05:23:58;3.85;;;2.15;;
67930;SDS011;63902;52.000;5.954;2023-01-16T05:24:58;7.30;;;1.90;;
67930;SDS011;63902;52.000;5.954;2023-01-16T05:25:58;7.30;;;1.70;;
67930;SDS011;63902;52.000;5.954;2023-01-16T05:26:59;5.07;;;2.60;;
67930;SDS011;63902;52.000;5.954;2023-01-16T05:28:00;4.38;;;2.22;;
67930;SDS011;63902;52.000;5.954;2023-01-16T05:29:00;9.02;;;1.90;;
67930;SDS011;63902;52.000;5.954;2023-01-16T05:30:01;4.15;;;1.63;;
67930;SDS011;63902;52.000;5.954;2023-01-16T05:31:01;5.68;;;1.50;;
67930;SDS011;63902;52.000;5.954;2023-01-16T05:32:02;6.78;;;1.52;;
67930;SDS011;63902;52.000;5.954;2023-01-16T05:33:03;4.60;;;2.08;;
67930;SDS011;63902;52.000;5.954;2023-01-16T05:34:03;4.30;;;1.45;;
67930;SDS011;63902;52.000;5.954;2023-01-16T05:35:05;6.25;;;1.60;;
67930;SDS011;63902;52.000;5.954;2023-01-16T05:36:07;4.70;;;1.70;;
67930;SDS011;63902;52.000;5.954;2023-01-16T05:37:08;6.47;;;1.88;;
67930;SDS011;63902;52.000;5.954;2023-01-16T05:38:08;2.20;;;1.58;;
67930;SDS011;63902;52.000;5.954;2023-01-16T05:39:09;5.97;;;1.70;;
67930;SDS011;63902;52.000;5.954;2023-01-16T05:40:10;3.20;;;1.52;;
67930;SDS011;63902;52.000;5.954;2023-01-16T05:41:11;11.60;;;1.48;;
67930;SDS011;63902;52.000;5.954;2023-01-16T05:42:12;4.68;;;1.10;;
67930;SDS011;63902;52.000;5.954;2023-01-16T05:43:13;5.45;;;2.70;;
67930;SDS011;63902;52.000;5.954;2023-01-16T05:44:14;14.18;;;2.35;;
67930;SDS011;63902;52.000;5.954;2023-01-16T05:45:14;3.28;;;1.58;;
67930;SDS011;63902;52.000;5.954;2023-01-16T05:46:15;9.77;;;1.63;;
67930;SDS011;63902;52.000;5.954;2023-01-16T05:47:15;3.17;;;1.75;;
67930;SDS011;63902;52.000;5.954;2023-01-16T05:48:16;5.15;;;1.45;;
67930;SDS011;63902;52.000;5.954;2023-01-16T05:49:16;2.97;;;1.50;;
67930;SDS011;63902;52.000;5.954;2023-01-16T05:50:18;3.55;;;1.52;;
67930;SDS011;63902;52.000;5.954;2023-01-16T05:51:18;3.97;;;1.77;;
67930;SDS011;63902;52.000;5.954;2023-01-16T05:52:19;4.35;;;1.55;;
67930;SDS011;63902;52.000;5.954;2023-01-16T05:53:19;5.88;;;1.67;;
67930;SDS011;63902;52.000;5.954;2023-01-16T05:54:20;4.70;;;1.65;;
67930;SDS011;63902;52.000;5.954;2023-01-16T05:55:20;4.93;;;1.60;;
67930;SDS011;63902;52.000;5.954;2023-01-16T05:56:21;7.10;;;1.73;;
67930;SDS011;63902;52.000;5.954;2023-01-16T05:57:22;4.65;;;1.67;;
67930;SDS011;63902;52.000;5.954;2023-01-16T05:58:23;8.75;;;1.85;;
67930;SDS011;63902;52.000;5.954;2023-01-16T05:59:24;3.80;;;1.30;;
67930;SDS011;63902;52.000;5.954;2023-01-16T06:00:25;3.38;;;1.17;;
67930;SDS011;63902;52.000;5.954;2023-01-16T06:01:25;4.95;;;1.20;;
67930;SDS011;63902;52.000;5.954;2023-01-16T06:02:26;5.30;;;1.40;;
67930;SDS011;63902;52.000;5.954;2023-01-16T06:03:26;3.53;;;1.20;;
67930;SDS011;63902;52.000;5.954;2023-01-16T06:04:27;3.17;;;1.25;;
67930;SDS011;63902;52.000;5.954;2023-01-16T06:05:28;8.38;;;1.85;;
67930;SDS011;63902;52.000;5.954;2023-01-16T06:06:29;6.03;;;1.38;;
67930;SDS011;63902;52.000;5.954;2023-01-16T06:07:29;3.92;;;1.67;;
67930;SDS011;63902;52.000;5.954;2023-01-16T06:08:30;4.00;;;1.40;;
67930;SDS011;63902;52.000;5.954;2023-01-16T06:09:30;5.65;;;1.48;;
67930;SDS011;63902;52.000;5.954;2023-01-16T06:10:31;13.15;;;2.00;;
67930;SDS011;63902;52.000;5.954;2023-01-16T06:11:31;4.30;;;1.40;;
67930;SDS011;63902;52.000;5.954;2023-01-16T06:12:31;3.03;;;1.23;;
67930;SDS011;63902;52.000;5.954;2023-01-16T06:13:32;5.28;;;1.25;;
67930;SDS011;63902;52.000;5.954;2023-01-16T06:14:32;6.50;;;1.30;;
67930;SDS011;63902;52.000;5.954;2023-01-16T06:15:33;6.57;;;1.52;;
67930;SDS011;63902;52.000;5.954;2023-01-16T06:16:33;6.63;;;1.35;;
67930;SDS011;63902;52.000;5.954;2023-01-16T06:17:34;3.42;;;1.42;;
67930;SDS011;63902;52.000;5.954;2023-01-16T06:18:35;4.10;;;1.10;;
67930;SDS011;63902;52.000;5.954;2023-01-16T06:19:35;4.13;;;1.13;;
67930;SDS011;63902;52.000;5.954;2023-01-16T06:20:37;6.75;;;1.75;;
67930;SDS011;63902;52.000;5.954;2023-01-16T06:21:38;3.92;;;1.27;;
67930;SDS011;63902;52.000;5.954;2023-01-16T06:22:38;3.15;;;1.08;;
67930;SDS011;63902;52.000;5.954;2023-01-16T06:23:39;4.60;;;1.27;;